Pipe Creek, Indiana
Current Conditions -  °F | °C
As of 3:55 PM on Thursday 23 Oct 2014 (Local Time) from KMZZ Reporting Station
Clear Clear  
Wind Chill: 57°   Ceiling: Unl
Heat Index: 57°   Visibility: 10mi
Dew Point: 37°   Wind: 0mph
Humidity: 48%   Direction: NA
Pressure: 30.16"   Gusts: NA
Location:  40.3067°N, 85.834°W
Report Text: KMZZ 231955Z AUTO 00000KT 10SM CLR 14/03 A3016 RMK AO2 T01380029
Loading
Personal Weather Stations






























Interactive Weather Map
Tropical Storm Tracking
New forecast layout! Learn more

10-Day Weather Forecast

Advertisements
Track Severe Weather on mobile